sensor_id;sensor_type;location;lat;lon;timestamp;pressure;altitude;pressure_sealevel;temperature;humidity
48614;BME280;34408;51.426;5.444;2023-01-31T00:01:28;102440.19;;;6.90;61.19
48614;BME280;34408;51.426;5.444;2023-01-31T00:03:57;102454.84;;;6.85;61.17
48614;BME280;34408;51.426;5.444;2023-01-31T00:06:26;102454.53;;;6.89;61.36
48614;BME280;34408;51.426;5.444;2023-01-31T00:08:56;102447.50;;;6.88;61.49
48614;BME280;34408;51.426;5.444;2023-01-31T00:11:25;102448.34;;;6.88;61.57
48614;BME280;34408;51.426;5.444;2023-01-31T00:13:54;102456.38;;;6.88;61.56
48614;BME280;34408;51.426;5.444;2023-01-31T00:16:23;102450.50;;;6.84;61.62
48614;BME280;34408;51.426;5.444;2023-01-31T00:18:52;102463.69;;;6.86;61.33
48614;BME280;34408;51.426;5.444;2023-01-31T00:21:21;102452.66;;;6.81;61.52
48614;BME280;34408;51.426;5.444;2023-01-31T00:23:50;102456.84;;;6.83;60.80
48614;BME280;34408;51.426;5.444;2023-01-31T00:26:19;102460.50;;;6.82;61.55
48614;BME280;34408;51.426;5.444;2023-01-31T00:28:48;102464.19;;;6.81;61.73
48614;BME280;34408;51.426;5.444;2023-01-31T00:31:17;102464.34;;;6.80;61.12
48614;BME280;34408;51.426;5.444;2023-01-31T00:33:48;102458.16;;;6.79;61.32
48614;BME280;34408;51.426;5.444;2023-01-31T00:36:17;102449.63;;;6.76;61.42
48614;BME280;34408;51.426;5.444;2023-01-31T00:38:47;102451.97;;;6.79;61.32
48614;BME280;34408;51.426;5.444;2023-01-31T00:41:15;102454.78;;;6.77;61.17
48614;BME280;34408;51.426;5.444;2023-01-31T00:43:42;102453.81;;;6.78;61.17
48614;BME280;34408;51.426;5.444;2023-01-31T00:46:10;102456.47;;;6.78;61.54
48614;BME280;34408;51.426;5.444;2023-01-31T00:48:38;102451.28;;;6.77;61.39
48614;BME280;34408;51.426;5.444;2023-01-31T00:51:07;102461.97;;;6.77;61.59
48614;BME280;34408;51.426;5.444;2023-01-31T00:53:35;102455.59;;;6.70;60.58
48614;BME280;34408;51.426;5.444;2023-01-31T00:56:05;102454.13;;;6.75;61.20
48614;BME280;34408;51.426;5.444;2023-01-31T00:58:34;102449.78;;;6.74;61.28
48614;BME280;34408;51.426;5.444;2023-01-31T01:01:06;102453.75;;;6.70;61.74
48614;BME280;34408;51.426;5.444;2023-01-31T01:03:35;102443.59;;;6.74;61.65
48614;BME280;34408;51.426;5.444;2023-01-31T01:06:04;102442.06;;;6.71;61.74
48614;BME280;34408;51.426;5.444;2023-01-31T01:08:34;102442.75;;;6.73;61.78
48614;BME280;34408;51.426;5.444;2023-01-31T01:11:06;102439.41;;;6.71;61.58
48614;BME280;34408;51.426;5.444;2023-01-31T01:13:34;102439.56;;;6.70;61.86
48614;BME280;34408;51.426;5.444;2023-01-31T01:16:04;102440.38;;;6.70;61.54
48614;BME280;34408;51.426;5.444;2023-01-31T01:18:32;102434.06;;;6.71;61.76
48614;BME280;34408;51.426;5.444;2023-01-31T01:21:06;102434.06;;;6.71;61.44
48614;BME280;34408;51.426;5.444;2023-01-31T01:23:36;102429.88;;;6.69;61.70
48614;BME280;34408;51.426;5.444;2023-01-31T01:26:04;102424.53;;;6.69;61.62
48614;BME280;34408;51.426;5.444;2023-01-31T01:28:32;102414.81;;;6.68;61.26
48614;BME280;34408;51.426;5.444;2023-01-31T01:31:05;102408.66;;;6.67;61.84
48614;BME280;34408;51.426;5.444;2023-01-31T01:33:33;102408.66;;;6.67;61.37
48614;BME280;34408;51.426;5.444;2023-01-31T01:36:01;102405.97;;;6.67;61.48
48614;BME280;34408;51.426;5.444;2023-01-31T01:38:30;102410.63;;;6.65;61.42
48614;BME280;34408;51.426;5.444;2023-01-31T01:41:02;102401.78;;;6.65;61.44
48614;BME280;34408;51.426;5.444;2023-01-31T01:43:41;102404.28;;;6.66;61.85
48614;BME280;34408;51.426;5.444;2023-01-31T01:46:11;102405.44;;;6.64;61.73
48614;BME280;34408;51.426;5.444;2023-01-31T01:48:41;102397.59;;;6.62;61.94
48614;BME280;34408;51.426;5.444;2023-01-31T01:51:11;102391.72;;;6.59;62.00
48614;BME280;34408;51.426;5.444;2023-01-31T01:53:42;102402.94;;;6.62;62.12
48614;BME280;34408;51.426;5.444;2023-01-31T01:56:15;102389.06;;;6.59;62.00
48614;BME280;34408;51.426;5.444;2023-01-31T01:58:47;102400.44;;;6.61;61.74
48614;BME280;34408;51.426;5.444;2023-01-31T02:01:18;102391.72;;;6.59;61.89
48614;BME280;34408;51.426;5.444;2023-01-31T02:03:46;102381.38;;;6.56;61.37
48614;BME280;34408;51.426;5.444;2023-01-31T02:06:15;102398.75;;;6.60;61.82
48614;BME280;34408;51.426;5.444;2023-01-31T02:08:43;102392.56;;;6.59;61.63
48614;BME280;34408;51.426;5.444;2023-01-31T02:11:17;102401.41;;;6.60;61.84
48614;BME280;34408;51.426;5.444;2023-01-31T02:13:49;102409.44;;;6.60;61.54
48614;BME280;34408;51.426;5.444;2023-01-31T02:16:18;102413.09;;;6.59;61.86
48614;BME280;34408;51.426;5.444;2023-01-31T02:18:47;102407.22;;;6.55;61.92
48614;BME280;34408;51.426;5.444;2023-01-31T02:21:48;102408.06;;;6.56;62.02
48614;BME280;34408;51.426;5.444;2023-01-31T02:24:38;102408.22;;;6.54;62.07
48614;BME280;34408;51.426;5.444;2023-01-31T02:27:27;102408.38;;;6.52;62.15
48614;BME280;34408;51.426;5.444;2023-01-31T02:30:14;102419.91;;;6.53;61.89
48614;BME280;34408;51.426;5.444;2023-01-31T02:32:59;102417.38;;;6.51;61.85
48614;BME280;34408;51.426;5.444;2023-01-31T02:35:46;102417.38;;;6.51;62.29
48614;BME280;34408;51.426;5.444;2023-01-31T02:38:33;102421.06;;;6.50;61.75
48614;BME280;34408;51.426;5.444;2023-01-31T02:41:13;102429.06;;;6.50;61.75
48614;BME280;34408;51.426;5.444;2023-01-31T02:43:47;102420.22;;;6.50;61.70
48614;BME280;34408;51.426;5.444;2023-01-31T02:46:42;102415.88;;;6.49;62.09
48614;BME280;34408;51.426;5.444;2023-01-31T02:49:17;102412.53;;;6.47;62.21
48614;BME280;34408;51.426;5.444;2023-01-31T02:52:05;102417.88;;;6.47;61.96
48614;BME280;34408;51.426;5.444;2023-01-31T02:54:55;102414.66;;;6.43;62.31
48614;BME280;34408;51.426;5.444;2023-01-31T02:57:44;102416.19;;;6.46;62.08
48614;BME280;34408;51.426;5.444;2023-01-31T03:00:13;102415.19;;;6.47;62.37
48614;BME280;34408;51.426;5.444;2023-01-31T03:02:42;102412.84;;;6.44;62.23
48614;BME280;34408;51.426;5.444;2023-01-31T03:05:13;102418.03;;;6.45;62.29
48614;BME280;34408;51.426;5.444;2023-01-31T03:07:43;102412.00;;;6.43;62.14
48614;BME280;34408;51.426;5.444;2023-01-31T03:13:34;102408.50;;;6.43;62.27
48614;BME280;34408;51.426;5.444;2023-01-31T03:16:17;102401.47;;;6.42;61.80
48614;BME280;34408;51.426;5.444;2023-01-31T03:19:07;102389.94;;;6.41;62.37
48614;BME280;34408;51.426;5.444;2023-01-31T03:21:43;102401.63;;;6.40;62.30
48614;BME280;34408;51.426;5.444;2023-01-31T03:24:14;102389.28;;;6.39;62.58
48614;BME280;34408;51.426;5.444;2023-01-31T03:26:44;102389.44;;;6.38;62.43
48614;BME280;34408;51.426;5.444;2023-01-31T03:29:14;102390.41;;;6.37;62.68
48614;BME280;34408;51.426;5.444;2023-01-31T03:31:47;102393.78;;;6.39;62.35
48614;BME280;34408;51.426;5.444;2023-01-31T03:34:16;102385.91;;;6.37;62.68
48614;BME280;34408;51.426;5.444;2023-01-31T03:36:51;102390.25;;;6.38;62.38
48614;BME280;34408;51.426;5.444;2023-01-31T03:39:29;102389.44;;;6.38;62.51
48614;BME280;34408;51.426;5.444;2023-01-31T03:42:02;102388.59;;;6.37;62.41
48614;BME280;34408;51.426;5.444;2023-01-31T03:44:39;102372.72;;;6.36;62.72
48614;BME280;34408;51.426;5.444;2023-01-31T03:47:13;102384.25;;;6.36;62.37
48614;BME280;34408;51.426;5.444;2023-01-31T03:49:42;102372.88;;;6.34;62.44
48614;BME280;34408;51.426;5.444;2023-01-31T03:52:17;102376.22;;;6.36;62.52
48614;BME280;34408;51.426;5.444;2023-01-31T03:54:52;102371.19;;;6.33;62.88
48614;BME280;34408;51.426;5.444;2023-01-31T03:57:23;102364.03;;;6.34;62.41
48614;BME280;34408;51.426;5.444;2023-01-31T03:59:54;102367.53;;;6.34;62.94
48614;BME280;34408;51.426;5.444;2023-01-31T04:02:26;102366.84;;;6.32;62.93
48614;BME280;34408;51.426;5.444;2023-01-31T04:05:03;102361.38;;;6.34;62.96
48614;BME280;34408;51.426;5.444;2023-01-31T04:07:34;102365.88;;;6.33;62.67
48614;BME280;34408;51.426;5.444;2023-01-31T04:10:06;102369.53;;;6.32;62.86
48614;BME280;34408;51.426;5.444;2023-01-31T04:12:37;102357.47;;;6.28;62.97
48614;BME280;34408;51.426;5.444;2023-01-31T04:15:06;102372.03;;;6.34;63.07
48614;BME280;34408;51.426;5.444;2023-01-31T04:17:34;102363.88;;;6.35;63.12
48614;BME280;34408;51.426;5.444;2023-01-31T04:20:04;102362.34;;;6.33;62.88
48614;BME280;34408;51.426;5.444;2023-01-31T04:22:33;102359.84;;;6.31;63.15
48614;BME280;34408;51.426;5.444;2023-01-31T04:25:01;102369.38;;;6.34;63.12
48614;BME280;34408;51.426;5.444;2023-01-31T04:27:29;102364.19;;;6.32;62.88
48614;BME280;34408;51.426;5.444;2023-01-31T04:29:57;102365.88;;;6.33;62.86
48614;BME280;34408;51.426;5.444;2023-01-31T04:32:25;102371.19;;;6.33;63.29
48614;BME280;34408;51.426;5.444;2023-01-31T04:34:52;102358.84;;;6.32;63.06
48614;BME280;34408;51.426;5.444;2023-01-31T04:37:20;102353.50;;;6.32;62.87
48614;BME280;34408;51.426;5.444;2023-01-31T04:39:49;102359.69;;;6.33;63.08
48614;BME280;34408;51.426;5.444;2023-01-31T04:42:17;102351.69;;;6.33;62.93
48614;BME280;34408;51.426;5.444;2023-01-31T04:44:45;102351.00;;;6.31;63.33
48614;BME280;34408;51.426;5.444;2023-01-31T04:47:12;102352.97;;;6.29;63.19
48614;BME280;34408;51.426;5.444;2023-01-31T04:49:40;102359.00;;;6.31;62.83
48614;BME280;34408;51.426;5.444;2023-01-31T04:52:09;102364.50;;;6.29;63.09
48614;BME280;34408;51.426;5.444;2023-01-31T04:54:37;102365.50;;;6.28;63.12
48614;BME280;34408;51.426;5.444;2023-01-31T04:57:06;102350.47;;;6.27;63.43
48614;BME280;34408;51.426;5.444;2023-01-31T04:59:34;102348.63;;;6.28;63.32
48614;BME280;34408;51.426;5.444;2023-01-31T05:02:02;102352.31;;;6.27;63.41
48614;BME280;34408;51.426;5.444;2023-01-31T05:04:29;102337.28;;;6.26;63.35
48614;BME280;34408;51.426;5.444;2023-01-31T05:06:58;102327.59;;;6.25;63.36
48614;BME280;34408;51.426;5.444;2023-01-31T05:09:25;102325.91;;;6.24;63.33
48614;BME280;34408;51.426;5.444;2023-01-31T05:11:53;102323.25;;;6.24;63.27
48614;BME280;34408;51.426;5.444;2023-01-31T05:14:22;102333.09;;;6.23;63.70
48614;BME280;34408;51.426;5.444;2023-01-31T05:16:50;102310.75;;;6.24;63.16
48614;BME280;34408;51.426;5.444;2023-01-31T05:19:18;102303.72;;;6.23;63.52
48614;BME280;34408;51.426;5.444;2023-01-31T05:21:46;102307.38;;;6.22;63.55
48614;BME280;34408;51.426;5.444;2023-01-31T05:24:25;102299.69;;;6.19;63.25
48614;BME280;34408;51.426;5.444;2023-01-31T05:26:54;102302.88;;;6.23;63.41
48614;BME280;34408;51.426;5.444;2023-01-31T05:29:26;102281.47;;;6.14;63.15
48614;BME280;34408;51.426;5.444;2023-01-31T05:31:55;102301.38;;;6.20;63.59
48614;BME280;34408;51.426;5.444;2023-01-31T05:34:25;102296.03;;;6.20;63.35
48614;BME280;34408;51.426;5.444;2023-01-31T05:36:54;102298.69;;;6.20;63.29
48614;BME280;34408;51.426;5.444;2023-01-31T05:39:21;102296.03;;;6.20;63.23
48614;BME280;34408;51.426;5.444;2023-01-31T05:41:49;102296.34;;;6.17;63.68
48614;BME280;34408;51.426;5.444;2023-01-31T05:44:18;102304.88;;;6.20;63.55
48614;BME280;34408;51.426;5.444;2023-01-31T05:46:47;102287.19;;;6.19;63.44
48614;BME280;34408;51.426;5.444;2023-01-31T05:49:15;102290.69;;;6.20;62.96
48614;BME280;34408;51.426;5.444;2023-01-31T05:51:43;102284.34;;;6.21;63.38
48614;BME280;34408;51.426;5.444;2023-01-31T05:54:11;102289.69;;;6.21;63.54
48614;BME280;34408;51.426;5.444;2023-01-31T05:56:39;102287.03;;;6.21;63.26
48614;BME280;34408;51.426;5.444;2023-01-31T05:59:06;102297.88;;;6.19;63.61
48614;BME280;34408;51.426;5.444;2023-01-31T06:01:34;102281.69;;;6.21;63.24
48614;BME280;34408;51.426;5.444;2023-01-31T06:04:04;102273.72;;;6.29;63.33
48614;BME280;34408;51.426;5.444;2023-01-31T06:06:31;102275.97;;;6.42;62.66
48614;BME280;34408;51.426;5.444;2023-01-31T06:08:59;102276.50;;;6.53;62.53
48614;BME280;34408;51.426;5.444;2023-01-31T06:11:27;102277.41;;;6.70;61.95
48614;BME280;34408;51.426;5.444;2023-01-31T06:13:55;102283.66;;;6.87;61.28
48614;BME280;34408;51.426;5.444;2023-01-31T06:16:24;102282.81;;;6.87;61.31
48614;BME280;34408;51.426;5.444;2023-01-31T06:18:52;102287.31;;;6.86;61.16
48614;BME280;34408;51.426;5.444;2023-01-31T06:21:22;102293.00;;;6.83;61.12
48614;BME280;34408;51.426;5.444;2023-01-31T06:23:50;102293.66;;;6.77;61.63
48614;BME280;34408;51.426;5.444;2023-01-31T06:26:17;102279.94;;;6.72;62.37
48614;BME280;34408;51.426;5.444;2023-01-31T06:28:45;102283.09;;;6.67;61.93
48614;BME280;34408;51.426;5.444;2023-01-31T06:31:13;102287.03;;;6.55;62.98
48614;BME280;34408;51.426;5.444;2023-01-31T06:33:41;102291.53;;;6.55;62.52
48614;BME280;34408;51.426;5.444;2023-01-31T06:36:13;102294.38;;;6.53;62.79
48614;BME280;34408;51.426;5.444;2023-01-31T06:38:49;102285.69;;;6.51;62.55
48614;BME280;34408;51.426;5.444;2023-01-31T06:41:17;102287.84;;;6.47;62.93
48614;BME280;34408;51.426;5.444;2023-01-31T06:43:45;102282.81;;;6.44;63.01
48614;BME280;34408;51.426;5.444;2023-01-31T06:46:12;102281.16;;;6.43;63.17
48614;BME280;34408;51.426;5.444;2023-01-31T06:48:40;102290.16;;;6.42;63.33
48614;BME280;34408;51.426;5.444;2023-01-31T06:51:09;102277.97;;;6.40;63.12
48614;BME280;34408;51.426;5.444;2023-01-31T06:53:37;102284.13;;;6.40;63.35
48614;BME280;34408;51.426;5.444;2023-01-31T06:56:07;102279.78;;;6.39;63.63
48614;BME280;34408;51.426;5.444;2023-01-31T06:58:35;102279.09;;;6.37;63.50
48614;BME280;34408;51.426;5.444;2023-01-31T07:01:04;102272.94;;;6.37;63.02
48614;BME280;34408;51.426;5.444;2023-01-31T07:03:31;102269.44;;;6.36;63.32
48614;BME280;34408;51.426;5.444;2023-01-31T07:05:59;102269.75;;;6.33;63.49
48614;BME280;34408;51.426;5.444;2023-01-31T07:08:27;102265.25;;;6.34;63.89
48614;BME280;34408;51.426;5.444;2023-01-31T07:10:55;102267.22;;;6.32;63.54
48614;BME280;34408;51.426;5.444;2023-01-31T07:13:24;102271.72;;;6.31;63.51
48614;BME280;34408;51.426;5.444;2023-01-31T07:15:52;102262.38;;;6.27;63.96
48614;BME280;34408;51.426;5.444;2023-01-31T07:18:20;102261.38;;;6.28;64.14
48614;BME280;34408;51.426;5.444;2023-01-31T07:20:48;102269.38;;;6.28;64.08
48614;BME280;34408;51.426;5.444;2023-01-31T07:23:16;102263.19;;;6.28;64.01
48614;BME280;34408;51.426;5.444;2023-01-31T07:25:44;102269.22;;;6.30;63.62
48614;BME280;34408;51.426;5.444;2023-01-31T07:28:12;102269.53;;;6.27;64.11
48614;BME280;34408;51.426;5.444;2023-01-31T07:30:41;102270.22;;;6.29;63.86
48614;BME280;34408;51.426;5.444;2023-01-31T07:33:09;102259.69;;;6.27;63.77
48614;BME280;34408;51.426;5.444;2023-01-31T07:35:37;102257.88;;;6.28;63.65
48614;BME280;34408;51.426;5.444;2023-01-31T07:38:05;102261.38;;;6.28;63.79
48614;BME280;34408;51.426;5.444;2023-01-31T07:40:35;102250.69;;;6.28;63.83
48614;BME280;34408;51.426;5.444;2023-01-31T07:43:03;102256.88;;;6.29;64.00
48614;BME280;34408;51.426;5.444;2023-01-31T07:45:30;102255.03;;;6.29;63.33
48614;BME280;34408;51.426;5.444;2023-01-31T07:48:00;102256.41;;;6.33;63.81
48614;BME280;34408;51.426;5.444;2023-01-31T07:50:27;102246.03;;;6.30;63.69
48614;BME280;34408;51.426;5.444;2023-01-31T07:52:56;102245.19;;;6.30;63.93
48614;BME280;34408;51.426;5.444;2023-01-31T07:55:24;102245.34;;;6.28;63.79
48614;BME280;34408;51.426;5.444;2023-01-31T07:57:52;102239.84;;;6.30;63.98
48614;BME280;34408;51.426;5.444;2023-01-31T08:00:20;102242.84;;;6.27;63.63
48614;BME280;34408;51.426;5.444;2023-01-31T08:03:20;102230.34;;;6.27;64.38
48614;BME280;34408;51.426;5.444;2023-01-31T08:06:00;102223.00;;;6.29;64.20
48614;BME280;34408;51.426;5.444;2023-01-31T08:08:29;102210.28;;;6.23;64.27
48614;BME280;34408;51.426;5.444;2023-01-31T08:10:56;102214.16;;;6.29;64.20
48614;BME280;34408;51.426;5.444;2023-01-31T08:13:24;102221.00;;;6.31;64.03
48614;BME280;34408;51.426;5.444;2023-01-31T08:15:53;102230.00;;;6.30;64.46
48614;BME280;34408;51.426;5.444;2023-01-31T08:18:22;102202.31;;;6.31;63.97
48614;BME280;34408;51.426;5.444;2023-01-31T08:20:50;102211.31;;;6.30;64.17
48614;BME280;34408;51.426;5.444;2023-01-31T08:23:17;102212.31;;;6.29;64.38
48614;BME280;34408;51.426;5.444;2023-01-31T08:25:45;102223.00;;;6.29;64.41
48614;BME280;34408;51.426;5.444;2023-01-31T08:28:13;102202.47;;;6.30;64.35
48614;BME280;34408;51.426;5.444;2023-01-31T08:30:42;102211.31;;;6.30;64.14
48614;BME280;34408;51.426;5.444;2023-01-31T08:33:23;102213.00;;;6.31;64.67
48614;BME280;34408;51.426;5.444;2023-01-31T08:35:51;102217.19;;;6.34;64.11
48614;BME280;34408;51.426;5.444;2023-01-31T08:38:19;102207.34;;;6.34;64.39
48614;BME280;34408;51.426;5.444;2023-01-31T08:40:47;102193.00;;;6.35;64.65
48614;BME280;34408;51.426;5.444;2023-01-31T08:43:15;102189.31;;;6.36;64.22
48614;BME280;34408;51.426;5.444;2023-01-31T08:45:44;102193.81;;;6.36;64.35
48614;BME280;34408;51.426;5.444;2023-01-31T08:48:12;102181.31;;;6.36;64.78
48614;BME280;34408;51.426;5.444;2023-01-31T08:50:41;102178.47;;;6.38;64.76
48614;BME280;34408;51.426;5.444;2023-01-31T08:53:09;102180.16;;;6.39;64.90
48614;BME280;34408;51.426;5.444;2023-01-31T08:55:37;102181.00;;;6.39;64.45
48614;BME280;34408;51.426;5.444;2023-01-31T08:58:04;102181.97;;;6.38;64.64
48614;BME280;34408;51.426;5.444;2023-01-31T09:00:32;102178.16;;;6.41;64.33
48614;BME280;34408;51.426;5.444;2023-01-31T09:03:01;102172.81;;;6.41;65.12
48614;BME280;34408;51.426;5.444;2023-01-31T09:05:30;102167.47;;;6.41;64.90
48614;BME280;34408;51.426;5.444;2023-01-31T09:08:00;102164.66;;;6.42;64.78
48614;BME280;34408;51.426;5.444;2023-01-31T09:10:28;102158.97;;;6.45;65.31
48614;BME280;34408;51.426;5.444;2023-01-31T09:12:57;102165.00;;;6.47;64.74
48614;BME280;34408;51.426;5.444;2023-01-31T09:15:25;102159.97;;;6.44;65.24
48614;BME280;34408;51.426;5.444;2023-01-31T09:17:54;102149.13;;;6.46;65.21
48614;BME280;34408;51.426;5.444;2023-01-31T09:20:22;102146.47;;;6.46;65.36
48614;BME280;34408;51.426;5.444;2023-01-31T09:22:49;102160.31;;;6.49;65.20
48614;BME280;34408;51.426;5.444;2023-01-31T09:25:18;102165.66;;;6.49;65.60
48614;BME280;34408;51.426;5.444;2023-01-31T09:28:06;102154.00;;;6.50;65.09
48614;BME280;34408;51.426;5.444;2023-01-31T09:30:34;102156.50;;;6.52;65.35
48614;BME280;34408;51.426;5.444;2023-01-31T09:33:01;102151.00;;;6.53;65.30
48614;BME280;34408;51.426;5.444;2023-01-31T09:35:29;102136.63;;;6.55;65.18
48614;BME280;34408;51.426;5.444;2023-01-31T09:37:57;102126.94;;;6.53;64.68
48614;BME280;34408;51.426;5.444;2023-01-31T09:40:28;102133.81;;;6.56;64.89
48614;BME280;34408;51.426;5.444;2023-01-31T09:43:00;102132.13;;;6.55;65.29
48614;BME280;34408;51.426;5.444;2023-01-31T09:45:31;102121.59;;;6.53;65.59
48614;BME280;34408;51.426;5.444;2023-01-31T09:48:01;102129.63;;;6.53;64.99
48614;BME280;34408;51.426;5.444;2023-01-31T09:50:32;102131.28;;;6.55;65.50
48614;BME280;34408;51.426;5.444;2023-01-31T09:53:02;102133.81;;;6.56;65.36
48614;BME280;34408;51.426;5.444;2023-01-31T09:55:38;102145.31;;;6.57;65.14
48614;BME280;34408;51.426;5.444;2023-01-31T09:58:16;102138.81;;;6.59;65.07
48614;BME280;34408;51.426;5.444;2023-01-31T10:00:47;102127.97;;;6.61;65.46
48614;BME280;34408;51.426;5.444;2023-01-31T10:03:39;102120.78;;;6.61;65.17
48614;BME280;34408;51.426;5.444;2023-01-31T10:06:16;102120.94;;;6.60;65.79
48614;BME280;34408;51.426;5.444;2023-01-31T10:08:49;102124.63;;;6.59;65.67
48614;BME280;34408;51.426;5.444;2023-01-31T10:11:28;102131.63;;;6.60;65.69
48614;BME280;34408;51.426;5.444;2023-01-31T10:14:00;102132.47;;;6.60;66.17
48614;BME280;34408;51.426;5.444;2023-01-31T10:16:36;102142.00;;;6.63;65.95
48614;BME280;34408;51.426;5.444;2023-01-31T10:19:07;102133.16;;;6.62;66.12
48614;BME280;34408;51.426;5.444;2023-01-31T10:21:39;102142.00;;;6.63;65.72
48614;BME280;34408;51.426;5.444;2023-01-31T10:24:12;102128.63;;;6.63;66.14
48614;BME280;34408;51.426;5.444;2023-01-31T10:26:45;102123.97;;;6.65;66.21
48614;BME280;34408;51.426;5.444;2023-01-31T10:29:21;102112.28;;;6.66;66.40
48614;BME280;34408;51.426;5.444;2023-01-31T10:31:57;102099.75;;;6.66;65.98
48614;BME280;34408;51.426;5.444;2023-01-31T10:34:28;102104.25;;;6.66;66.41
48614;BME280;34408;51.426;5.444;2023-01-31T10:37:02;102111.44;;;6.65;66.49
48614;BME280;34408;51.426;5.444;2023-01-31T10:39:34;102111.94;;;6.69;66.72
48614;BME280;34408;51.426;5.444;2023-01-31T10:42:13;102124.31;;;6.70;66.50
48614;BME280;34408;51.426;5.444;2023-01-31T10:44:50;102125.16;;;6.70;66.67
48614;BME280;34408;51.426;5.444;2023-01-31T10:47:20;102128.31;;;6.66;66.62
48614;BME280;34408;51.426;5.444;2023-01-31T10:49:49;102136.66;;;6.71;66.67
48614;BME280;34408;51.426;5.444;2023-01-31T10:52:31;102129.31;;;6.73;67.29
48614;BME280;34408;51.426;5.444;2023-01-31T10:55:14;102100.25;;;6.70;66.92
48614;BME280;34408;51.426;5.444;2023-01-31T10:57:46;102105.94;;;6.75;67.37
48614;BME280;34408;51.426;5.444;2023-01-31T11:00:19;102098.94;;;6.74;66.88
48614;BME280;34408;51.426;5.444;2023-01-31T11:02:49;102094.09;;;6.77;66.85
48614;BME280;34408;51.426;5.444;2023-01-31T11:05:19;102103.63;;;6.80;67.37
48614;BME280;34408;51.426;5.444;2023-01-31T11:07:48;102101.94;;;6.79;67.72
48614;BME280;34408;51.426;5.444;2023-01-31T11:10:21;102098.94;;;6.82;67.90
48614;BME280;34408;51.426;5.444;2023-01-31T11:12:55;102102.44;;;6.82;67.76
48614;BME280;34408;51.426;5.444;2023-01-31T11:15:26;102098.09;;;6.81;67.54
48614;BME280;34408;51.426;5.444;2023-01-31T11:17:57;102104.13;;;6.83;68.10
48614;BME280;34408;51.426;5.444;2023-01-31T11:20:28;102086.91;;;6.86;67.90
48614;BME280;34408;51.426;5.444;2023-01-31T11:22:58;102089.59;;;6.86;67.74
48614;BME280;34408;51.426;5.444;2023-01-31T11:25:29;102083.41;;;6.85;68.26
48614;BME280;34408;51.426;5.444;2023-01-31T11:28:00;102072.72;;;6.77;67.72
48614;BME280;34408;51.426;5.444;2023-01-31T11:30:31;102084.56;;;6.91;67.73
48614;BME280;34408;51.426;5.444;2023-01-31T11:33:01;102060.31;;;7.01;67.35
48614;BME280;34408;51.426;5.444;2023-01-31T11:35:30;102064.78;;;7.25;66.97
48614;BME280;34408;51.426;5.444;2023-01-31T11:38:00;102058.22;;;7.43;66.75
48614;BME280;34408;51.426;5.444;2023-01-31T11:40:30;102058.69;;;7.63;65.45
48614;BME280;34408;51.426;5.444;2023-01-31T11:43:01;102066.94;;;7.84;65.35
48614;BME280;34408;51.426;5.444;2023-01-31T11:45:30;102056.81;;;8.03;64.06
48614;BME280;34408;51.426;5.444;2023-01-31T11:48:05;102058.75;;;8.17;64.51
48614;BME280;34408;51.426;5.444;2023-01-31T11:50:36;102058.34;;;8.28;63.96
48614;BME280;34408;51.426;5.444;2023-01-31T11:53:15;102056.97;;;8.40;63.91
48614;BME280;34408;51.426;5.444;2023-01-31T11:55:43;102058.22;;;8.53;62.96
48614;BME280;34408;51.426;5.444;2023-01-31T11:58:18;102047.91;;;8.64;63.42
48614;BME280;34408;51.426;5.444;2023-01-31T12:00:53;102044.13;;;8.73;62.54
48614;BME280;34408;51.426;5.444;2023-01-31T12:03:22;102037.88;;;8.81;62.39
48614;BME280;34408;51.426;5.444;2023-01-31T12:05:59;102038.34;;;8.85;62.33
48614;BME280;34408;51.426;5.444;2023-01-31T12:08:29;102061.25;;;8.87;62.18
48614;BME280;34408;51.426;5.444;2023-01-31T12:10:57;102058.41;;;8.89;61.66
48614;BME280;34408;51.426;5.444;2023-01-31T12:13:27;102043.16;;;8.89;61.92
48614;BME280;34408;51.426;5.444;2023-01-31T12:15:57;102049.16;;;8.91;61.81
48614;BME280;34408;51.426;5.444;2023-01-31T12:18:38;102044.28;;;8.95;62.39
48614;BME280;34408;51.426;5.444;2023-01-31T12:21:13;102041.06;;;8.99;61.85
48614;BME280;34408;51.426;5.444;2023-01-31T12:23:52;102049.28;;;8.98;61.86
48614;BME280;34408;51.426;5.444;2023-01-31T12:26:31;102053.63;;;8.99;62.37
48614;BME280;34408;51.426;5.444;2023-01-31T12:29:16;102048.72;;;9.02;62.07
48614;BME280;34408;51.426;5.444;2023-01-31T12:32:03;102025.16;;;8.98;62.70
48614;BME280;34408;51.426;5.444;2023-01-31T12:34:45;102039.97;;;9.08;61.79
48614;BME280;34408;51.426;5.444;2023-01-31T12:37:40;102043.47;;;9.09;62.57
48614;BME280;34408;51.426;5.444;2023-01-31T12:40:34;102042.94;;;9.13;63.21
48614;BME280;34408;51.426;5.444;2023-01-31T12:43:16;102038.56;;;9.12;62.47
48614;BME280;34408;51.426;5.444;2023-01-31T12:45:56;102036.00;;;9.19;62.53
48614;BME280;34408;51.426;5.444;2023-01-31T12:48:54;102040.34;;;9.20;62.53
48614;BME280;34408;51.426;5.444;2023-01-31T12:51:37;102041.81;;;9.23;62.95
48614;BME280;34408;51.426;5.444;2023-01-31T12:54:17;102044.50;;;9.23;63.28
48614;BME280;34408;51.426;5.444;2023-01-31T12:56:57;102047.66;;;9.26;63.70
48614;BME280;34408;51.426;5.444;2023-01-31T12:59:38;102044.78;;;9.28;63.67
48614;BME280;34408;51.426;5.444;2023-01-31T13:02:19;102040.44;;;9.27;63.12
48614;BME280;34408;51.426;5.444;2023-01-31T13:04:54;102033.22;;;9.27;63.14
48614;BME280;34408;51.426;5.444;2023-01-31T13:07:29;102025.19;;;9.27;63.23
48614;BME280;34408;51.426;5.444;2023-01-31T13:10:02;102035.16;;;9.33;62.76
48614;BME280;34408;51.426;5.444;2023-01-31T13:12:34;102028.78;;;9.34;63.39
48614;BME280;34408;51.426;5.444;2023-01-31T13:15:06;102029.25;;;9.38;63.14
48614;BME280;34408;51.426;5.444;2023-01-31T13:17:42;102023.69;;;9.39;63.76
48614;BME280;34408;51.426;5.444;2023-01-31T13:20:21;102021.19;;;9.38;63.44
48614;BME280;34408;51.426;5.444;2023-01-31T13:22:52;102018.16;;;9.41;63.84
48614;BME280;34408;51.426;5.444;2023-01-31T13:25:29;102014.25;;;9.43;63.77
48614;BME280;34408;51.426;5.444;2023-01-31T13:28:05;102012.41;;;9.44;63.24